Time;durP1;ratioP1;P1;durP2;ratioP2;P2;SDS_P1;SDS_P2;PMS_P1;PMS_P2;Temp;Humidity;BMP_temperature;BMP_pressure;BME280_temperature;BME280_humidity;BME280_pressure;Samples;Min_cycle;Max_cycle;Signal;HPM_P1;HPM_P2
2022/04/11 00:00:48;;;;;;;;;;;5.90;99.90;;;;;;5032121;28;19951;-67
2022/04/11 00:03:13;;;;;;;;;;;6.00;99.90;;;;;;5031642;28;20433;-67
2022/04/11 00:05:39;;;;;;;;;;;5.90;99.90;;;;;;5032160;28;20012;-66
2022/04/11 00:08:04;;;;;;;;;;;5.90;99.90;;;;;;5032164;28;19961;-66
2022/04/11 00:10:30;;;;;;;;;;;5.80;99.90;;;;;;5031915;28;20036;-67
2022/04/11 00:13:02;;;;;;;;;;;5.90;99.90;;;;;;5031897;28;19909;-67
2022/04/11 00:15:28;;;;;;;;;;;5.80;99.90;;;;;;5031935;28;20004;-66
2022/04/11 00:17:53;;;;;;;;;;;5.70;99.90;;;;;;5032226;28;19959;-66
2022/04/11 00:20:19;;;;;;;;;;;5.60;99.90;;;;;;5035818;28;19959;-67
2022/04/11 00:22:44;;;;;;;;;;;5.50;99.90;;;;;;5038139;28;19980;-68
2022/04/11 00:25:10;;;;;;;;;;;5.50;99.90;;;;;;5036173;28;19909;-67
2022/04/11 00:27:35;;;;;;;;;;;5.50;99.90;;;;;;5035962;28;20298;-67
2022/04/11 00:30:00;;;;;;;;;;;5.50;99.90;;;;;;5035757;28;19915;-68
2022/04/11 00:32:26;;;;;;;;;;;5.50;99.90;;;;;;5035935;28;19992;-66
2022/04/11 00:34:51;;;;;;;;;;;5.40;99.90;;;;;;5035847;28;19915;-67
2022/04/11 00:37:17;;;;;;;;;;;5.40;99.90;;;;;;5036049;28;20510;-67
2022/04/11 00:39:43;;;;;;;;;;;5.40;99.90;;;;;;5035095;28;19933;-66
2022/04/11 00:42:09;;;;;;;;;;;5.50;99.90;;;;;;5035697;28;19917;-66
2022/04/11 00:44:35;;;;;;;;;;;5.60;99.90;;;;;;5035880;28;19915;-67
2022/04/11 00:47:00;;;;;;;;;;;5.70;99.90;;;;;;5035695;28;19913;-66
2022/04/11 00:49:26;;;;;;;;;;;5.60;99.90;;;;;;5035253;28;20019;-67
2022/04/11 00:51:51;;;;;;;;;;;5.70;99.90;;;;;;5035329;28;20342;-65
2022/04/11 00:54:17;;;;;;;;;;;5.70;99.90;;;;;;5035148;28;19909;-68
2022/04/11 00:56:43;;;;;;;;;;;5.70;99.90;;;;;;5017433;28;19909;-66
2022/04/11 00:59:10;;;;;;;;;;;5.80;99.90;;;;;;5034907;28;19919;-65
2022/04/11 01:01:36;;;;;;;;;;;5.90;99.90;;;;;;5034923;28;19921;-67
2022/04/11 01:04:02;;;;;;;;;;;6.00;99.90;;;;;;5035191;28;19909;-68
2022/04/11 01:06:27;;;;;;;;;;;6.10;99.90;;;;;;5035509;28;19916;-68
2022/04/11 01:08:54;;;;;;;;;;;6.10;99.90;;;;;;5034787;28;20440;-66
2022/04/11 01:11:20;;;;;;;;;;;6.00;99.90;;;;;;5034730;28;20024;-67
2022/04/11 01:13:45;;;;;;;;;;;6.00;99.90;;;;;;5034798;28;20033;-67
2022/04/11 01:16:11;;;;;;;;;;;6.10;99.90;;;;;;5017126;28;19909;-70
2022/04/11 01:18:37;;;;;;;;;;;6.20;99.90;;;;;;5017143;28;19909;-67
2022/04/11 01:21:03;;;;;;;;;;;6.20;99.90;;;;;;5034130;28;20008;-67
2022/04/11 01:23:29;;;;;;;;;;;6.20;99.90;;;;;;5034685;28;20441;-67
2022/04/11 01:25:54;;;;;;;;;;;6.20;99.90;;;;;;5034515;28;20008;-66
2022/04/11 01:28:21;;;;;;;;;;;6.10;99.90;;;;;;5034653;28;19932;-66
2022/04/11 01:30:50;;;;;;;;;;;6.10;99.90;;;;;;5034167;28;19916;-67
2022/04/11 01:33:17;;;;;;;;;;;6.20;99.90;;;;;;5034397;28;19909;-65
2022/04/11 01:35:42;;;;;;;;;;;6.10;99.90;;;;;;5016852;28;19913;-67
2022/04/11 01:38:08;;;;;;;;;;;6.20;99.90;;;;;;5034347;28;20527;-66
2022/04/11 01:40:34;;;;;;;;;;;6.20;99.90;;;;;;5034167;28;19952;-67
2022/04/11 01:42:59;;;;;;;;;;;6.20;99.90;;;;;;5034252;28;19917;-67
2022/04/11 01:45:25;;;;;;;;;;;6.10;99.90;;;;;;5034154;28;19952;-67
2022/04/11 01:47:50;;;;;;;;;;;6.10;99.90;;;;;;5034296;28;19909;-67
2022/04/11 01:50:15;;;;;;;;;;;6.20;99.90;;;;;;5034156;28;20575;-67
2022/04/11 01:52:41;;;;;;;;;;;6.20;99.90;;;;;;5034250;28;20283;-67
2022/04/11 01:55:06;;;;;;;;;;;6.20;99.90;;;;;;5033983;28;20290;-67
2022/04/11 01:57:32;;;;;;;;;;;6.20;99.90;;;;;;5033988;28;20528;-67
2022/04/11 01:59:57;;;;;;;;;;;6.30;99.90;;;;;;5034637;28;19909;-67
2022/04/11 02:02:23;;;;;;;;;;;6.30;99.90;;;;;;5035339;28;20302;-67
2022/04/11 02:04:48;;;;;;;;;;;6.30;99.90;;;;;;5034222;28;19913;-67
2022/04/11 02:07:14;;;;;;;;;;;6.30;99.90;;;;;;5033653;28;19986;-66
2022/04/11 02:09:39;;;;;;;;;;;6.30;99.90;;;;;;5033976;28;19913;-66
2022/04/11 02:12:05;;;;;;;;;;;6.20;99.90;;;;;;5035362;28;19959;-66
2022/04/11 02:14:30;;;;;;;;;;;6.00;99.90;;;;;;5033956;28;19995;-67
2022/04/11 02:16:56;;;;;;;;;;;6.00;99.90;;;;;;5034087;28;19944;-65
2022/04/11 02:19:22;;;;;;;;;;;6.00;99.90;;;;;;5033342;28;20342;-66
2022/04/11 02:21:47;;;;;;;;;;;6.10;99.90;;;;;;5033608;28;19999;-65
2022/04/11 02:24:13;;;;;;;;;;;6.20;99.90;;;;;;5033584;28;20047;-66
2022/04/11 02:26:38;;;;;;;;;;;6.20;99.90;;;;;;5033986;28;19921;-67
2022/04/11 02:29:04;;;;;;;;;;;6.30;99.90;;;;;;5033370;28;19916;-67
2022/04/11 02:31:29;;;;;;;;;;;6.40;99.90;;;;;;5033161;28;20016;-67
2022/04/11 02:33:55;;;;;;;;;;;6.40;99.90;;;;;;5033461;28;20316;-66
2022/04/11 02:36:20;;;;;;;;;;;6.50;99.90;;;;;;5033550;28;20396;-67
2022/04/11 02:38:46;;;;;;;;;;;6.50;99.90;;;;;;5033732;28;19963;-68
2022/04/11 02:41:11;;;;;;;;;;;6.60;99.90;;;;;;5033188;28;20277;-68
2022/04/11 02:43:36;;;;;;;;;;;6.60;99.90;;;;;;5032296;28;20302;-66
2022/04/11 02:46:02;;;;;;;;;;;6.60;99.90;;;;;;5033423;28;19909;-67
2022/04/11 02:48:27;;;;;;;;;;;6.60;99.90;;;;;;5033453;28;19909;-68
2022/04/11 02:50:53;;;;;;;;;;;6.40;99.90;;;;;;5032665;28;20374;-66
2022/04/11 02:53:19;;;;;;;;;;;6.30;99.90;;;;;;5033309;28;20397;-67
2022/04/11 02:55:44;;;;;;;;;;;6.20;99.90;;;;;;5033057;28;19925;-66
2022/04/11 02:58:09;;;;;;;;;;;5.90;99.90;;;;;;5033071;28;19916;-66
2022/04/11 03:00:35;;;;;;;;;;;5.90;99.90;;;;;;5032693;28;19909;-66
2022/04/11 03:05:26;;;;;;;;;;;5.80;99.90;;;;;;5085322;22;19940;-67
2022/04/11 03:07:51;;;;;;;;;;;5.80;99.90;;;;;;5077891;28;19900;-67
2022/04/11 03:10:16;;;;;;;;;;;5.80;99.90;;;;;;5078002;28;19923;-67
2022/04/11 03:12:42;;;;;;;;;;;5.70;99.90;;;;;;5078790;28;19924;-67
2022/04/11 03:15:08;;;;;;;;;;;5.70;99.90;;;;;;5055419;28;19909;-68
2022/04/11 03:17:34;;;;;;;;;;;5.70;99.90;;;;;;5053564;28;20004;-70
2022/04/11 03:19:59;;;;;;;;;;;5.80;99.90;;;;;;5052891;28;19943;-70
2022/04/11 03:22:25;;;;;;;;;;;5.80;99.90;;;;;;5053018;28;20449;-70
2022/04/11 03:24:50;;;;;;;;;;;5.80;99.90;;;;;;5054235;28;19991;-70
2022/04/11 03:27:16;;;;;;;;;;;5.80;99.90;;;;;;5053939;28;19909;-69
2022/04/11 03:29:41;;;;;;;;;;;5.70;99.90;;;;;;5051927;28;19916;-68
2022/04/11 03:32:07;;;;;;;;;;;5.70;99.90;;;;;;5052033;28;20425;-70
2022/04/11 03:34:32;;;;;;;;;;;5.90;99.90;;;;;;5051285;28;19909;-70
2022/04/11 03:36:58;;;;;;;;;;;5.90;99.90;;;;;;5052339;28;19955;-70
2022/04/11 03:39:23;;;;;;;;;;;6.00;99.90;;;;;;5052260;28;20387;-70
2022/04/11 03:41:49;;;;;;;;;;;6.00;99.90;;;;;;5052497;28;19913;-70
2022/04/11 03:44:14;;;;;;;;;;;6.10;99.90;;;;;;5052577;28;20004;-70
2022/04/11 03:46:40;;;;;;;;;;;6.10;99.90;;;;;;5052613;28;19944;-70
2022/04/11 03:49:06;;;;;;;;;;;6.10;99.90;;;;;;5052293;28;20369;-69
2022/04/11 03:51:32;;;;;;;;;;;6.10;99.90;;;;;;5052333;28;19916;-69
2022/04/11 03:53:57;;;;;;;;;;;6.20;99.90;;;;;;5052253;28;19909;-70
2022/04/11 03:56:22;;;;;;;;;;;6.10;99.90;;;;;;5052625;28;19913;-70
2022/04/11 03:58:48;;;;;;;;;;;6.10;99.90;;;;;;5052393;28;19916;-70
2022/04/11 04:01:13;;;;;;;;;;;6.00;99.90;;;;;;5051713;28;20478;-71
2022/04/11 04:03:40;;;;;;;;;;;6.00;99.90;;;;;;5052046;28;19998;-69
2022/04/11 04:06:05;;;;;;;;;;;6.00;99.90;;;;;;5052805;28;19909;-70
2022/04/11 04:08:31;;;;;;;;;;;6.00;99.90;;;;;;5069772;28;19916;-70
2022/04/11 04:10:56;;;;;;;;;;;6.20;99.90;;;;;;5074562;28;19944;-69
2022/04/11 04:13:22;;;;;;;;;;;6.10;99.90;;;;;;5075517;28;19971;-67
2022/04/11 04:15:47;;;;;;;;;;;6.10;99.90;;;;;;5075747;28;19897;-69
2022/04/11 04:18:13;;;;;;;;;;;6.20;99.90;;;;;;5078138;28;19905;-65
2022/04/11 04:20:41;;;;;;;;;;;6.30;99.90;;;;;;5069815;28;19913;-69
2022/04/11 04:23:07;;;;;;;;;;;6.30;99.90;;;;;;5069935;28;20026;-70
2022/04/11 04:25:36;;;;;;;;;;;6.40;99.90;;;;;;5069264;28;19933;-70
2022/04/11 04:28:02;;;;;;;;;;;6.40;99.90;;;;;;5068465;28;19958;-70
2022/04/11 04:30:28;;;;;;;;;;;6.20;99.90;;;;;;5067884;28;19999;-70
2022/04/11 04:32:54;;;;;;;;;;;6.10;99.90;;;;;;5068698;28;19920;-69
2022/04/11 04:35:20;;;;;;;;;;;6.10;99.90;;;;;;5068631;28;19908;-70
2022/04/11 04:37:45;;;;;;;;;;;6.10;99.90;;;;;;5056144;28;20648;-69
2022/04/11 04:40:11;;;;;;;;;;;6.10;99.90;;;;;;5051950;28;19909;-69
2022/04/11 04:42:36;;;;;;;;;;;6.00;99.90;;;;;;5051911;28;20001;-70
2022/04/11 04:45:02;;;;;;;;;;;5.90;99.90;;;;;;5051682;28;19913;-69
2022/04/11 04:47:28;;;;;;;;;;;5.90;99.90;;;;;;5044996;28;19917;-70
2022/04/11 04:49:53;;;;;;;;;;;5.90;99.90;;;;;;5049316;28;19959;-69
2022/04/11 04:52:19;;;;;;;;;;;6.00;99.90;;;;;;5048861;28;19912;-68
2022/04/11 04:54:44;;;;;;;;;;;5.90;99.90;;;;;;5049841;28;19931;-68
2022/04/11 04:57:10;;;;;;;;;;;6.00;99.90;;;;;;5049916;28;19912;-69
2022/04/11 04:59:35;;;;;;;;;;;6.00;99.90;;;;;;5049676;28;20069;-70
2022/04/11 05:02:01;;;;;;;;;;;6.10;99.90;;;;;;5049846;28;19917;-69
2022/04/11 05:04:26;;;;;;;;;;;6.00;99.90;;;;;;5048885;28;20388;-69
2022/04/11 05:06:51;;;;;;;;;;;6.00;99.90;;;;;;5052509;28;19908;-69
2022/04/11 05:09:17;;;;;;;;;;;6.00;99.90;;;;;;5052943;28;19913;-69
2022/04/11 05:11:43;;;;;;;;;;;5.90;99.90;;;;;;5053883;28;19909;-69
2022/04/11 05:14:08;;;;;;;;;;;5.90;99.90;;;;;;5051687;28;19963;-68
2022/04/11 05:16:34;;;;;;;;;;;5.90;99.90;;;;;;5057096;28;20282;-69
2022/04/11 05:18:59;;;;;;;;;;;5.90;99.90;;;;;;5053965;28;20267;-69
2022/04/11 05:21:25;;;;;;;;;;;5.90;99.90;;;;;;5053440;28;20591;-69
2022/04/11 05:23:50;;;;;;;;;;;6.00;99.90;;;;;;5053783;28;20015;-69
2022/04/11 05:26:18;;;;;;;;;;;6.00;99.90;;;;;;5053273;28;19909;-69
2022/04/11 05:28:43;;;;;;;;;;;5.90;99.90;;;;;;5053060;28;19916;-70
2022/04/11 05:31:09;;;;;;;;;;;6.00;99.90;;;;;;5053196;28;19996;-68
2022/04/11 05:33:34;;;;;;;;;;;5.90;99.90;;;;;;5052463;28;19912;-70
2022/04/11 05:36:00;;;;;;;;;;;5.80;99.90;;;;;;5053349;28;19909;-69
2022/04/11 05:38:25;;;;;;;;;;;5.90;99.90;;;;;;5052865;28;19948;-68
2022/04/11 05:40:51;;;;;;;;;;;5.90;99.90;;;;;;5052602;28;19909;-68
2022/04/11 05:43:16;;;;;;;;;;;5.90;99.90;;;;;;5052267;28;19953;-67
2022/04/11 05:45:42;;;;;;;;;;;6.00;99.90;;;;;;5052856;28;20156;-69
2022/04/11 05:48:08;;;;;;;;;;;6.00;99.90;;;;;;5052291;28;20378;-67
2022/04/11 05:50:33;;;;;;;;;;;6.10;99.90;;;;;;5052414;28;19913;-69
2022/04/11 05:53:00;;;;;;;;;;;6.10;99.90;;;;;;5052650;28;19913;-67
2022/04/11 05:55:25;;;;;;;;;;;6.20;99.90;;;;;;5052290;28;19979;-71
2022/04/11 05:57:51;;;;;;;;;;;6.20;99.90;;;;;;5052438;28;19912;-68
2022/04/11 06:00:16;;;;;;;;;;;6.30;99.90;;;;;;5051908;28;19939;-70
2022/04/11 06:02:42;;;;;;;;;;;6.40;99.90;;;;;;5057497;28;19917;-70
2022/04/11 06:05:08;;;;;;;;;;;6.40;99.90;;;;;;5070964;28;20003;-66
2022/04/11 06:07:33;;;;;;;;;;;6.50;99.90;;;;;;5072309;28;20449;-68
2022/04/11 06:09:59;;;;;;;;;;;6.50;99.90;;;;;;5071871;28;19913;-68
2022/04/11 06:12:25;;;;;;;;;;;6.50;99.90;;;;;;5072082;28;19909;-70
2022/04/11 06:14:53;;;;;;;;;;;6.50;99.90;;;;;;5072523;28;19913;-68
2022/04/11 06:17:23;;;;;;;;;;;6.60;99.90;;;;;;5072637;28;19913;-69
2022/04/11 06:19:49;;;;;;;;;;;6.60;99.90;;;;;;5072416;28;19919;-68
2022/04/11 06:22:15;;;;;;;;;;;6.70;99.90;;;;;;5071621;28;19916;-69
2022/04/11 06:24:40;;;;;;;;;;;6.80;99.90;;;;;;5073542;28;20436;-69
2022/04/11 06:27:06;;;;;;;;;;;6.80;99.70;;;;;;5074131;28;19916;-68
2022/04/11 06:29:31;;;;;;;;;;;6.80;99.60;;;;;;5072630;28;20007;-69
2022/04/11 06:32:02;;;;;;;;;;;6.90;99.50;;;;;;5072941;28;20365;-70
2022/04/11 06:34:27;;;;;;;;;;;7.00;99.50;;;;;;5072632;28;19945;-70
2022/04/11 06:36:53;;;;;;;;;;;7.10;99.40;;;;;;5072738;28;20285;-69
2022/04/11 06:39:18;;;;;;;;;;;7.30;99.10;;;;;;5073081;28;19963;-69
2022/04/11 06:41:44;;;;;;;;;;;7.40;98.30;;;;;;5073028;28;19943;-69
2022/04/11 06:44:10;;;;;;;;;;;7.50;97.70;;;;;;5073121;28;19912;-69
2022/04/11 06:46:35;;;;;;;;;;;7.60;97.40;;;;;;5075215;28;19908;-70
2022/04/11 06:49:01;;;;;;;;;;;7.60;96.90;;;;;;5073580;28;19930;-69
2022/04/11 06:51:26;;;;;;;;;;;7.80;96.90;;;;;;5073714;28;19909;-69
2022/04/11 06:53:52;;;;;;;;;;;7.90;96.50;;;;;;5070940;28;19909;-72
2022/04/11 06:56:17;;;;;;;;;;;8.10;96.30;;;;;;5061604;28;19908;-69
2022/04/11 06:58:42;;;;;;;;;;;8.10;96.10;;;;;;5051884;28;19999;-69
2022/04/11 07:01:08;;;;;;;;;;;8.30;95.90;;;;;;5051231;28;20250;-67
2022/04/11 07:03:33;;;;;;;;;;;8.40;95.70;;;;;;5050843;28;20410;-68
2022/04/11 07:05:59;;;;;;;;;;;8.40;95.20;;;;;;5051851;28;19917;-69
2022/04/11 07:08:24;;;;;;;;;;;8.60;95.10;;;;;;5051130;28;19912;-67
2022/04/11 07:10:49;;;;;;;;;;;8.70;94.80;;;;;;5051586;28;19909;-67
2022/04/11 07:13:15;;;;;;;;;;;8.80;94.50;;;;;;5050978;28;20087;-70
2022/04/11 07:15:40;;;;;;;;;;;8.90;94.20;;;;;;5058601;28;19935;-69
2022/04/11 07:18:06;;;;;;;;;;;8.90;94.10;;;;;;5058485;28;19982;-68
2022/04/11 07:20:31;;;;;;;;;;;9.00;94.00;;;;;;5059025;28;19909;-69
2022/04/11 07:22:57;;;;;;;;;;;9.10;94.10;;;;;;5051331;28;20370;-69
2022/04/11 07:25:25;;;;;;;;;;;9.20;93.80;;;;;;5050789;28;20417;-70
2022/04/11 07:27:51;;;;;;;;;;;9.20;93.40;;;;;;5052097;28;19916;-69
2022/04/11 07:30:17;;;;;;;;;;;9.30;93.30;;;;;;5052479;28;19909;-69
2022/04/11 07:32:42;;;;;;;;;;;9.30;93.20;;;;;;5054394;28;19916;-69
2022/04/11 07:35:08;;;;;;;;;;;9.40;93.30;;;;;;5054251;28;20382;-69
2022/04/11 07:37:33;;;;;;;;;;;9.40;93.30;;;;;;5053500;28;20004;-69
2022/04/11 07:40:00;;;;;;;;;;;9.50;93.00;;;;;;5054937;28;19913;-70
2022/04/11 07:42:26;;;;;;;;;;;9.60;92.90;;;;;;5064973;28;19925;-67
2022/04/11 07:44:52;;;;;;;;;;;9.70;92.70;;;;;;5076482;28;19917;-68
2022/04/11 07:47:17;;;;;;;;;;;9.80;92.50;;;;;;5077107;28;19956;-67
2022/04/11 07:49:43;;;;;;;;;;;9.90;92.70;;;;;;5076890;28;19913;-68
2022/04/11 07:52:08;;;;;;;;;;;10.00;92.00;;;;;;5076940;28;19901;-69
2022/04/11 07:54:34;;;;;;;;;;;10.10;91.80;;;;;;5065286;28;20441;-69
2022/04/11 07:56:59;;;;;;;;;;;10.10;91.20;;;;;;5055380;28;20085;-70
2022/04/11 07:59:24;;;;;;;;;;;10.20;91.20;;;;;;5053312;28;20437;-70
2022/04/11 08:01:52;;;;;;;;;;;10.30;91.00;;;;;;5052720;28;19937;-71
2022/04/11 08:04:17;;;;;;;;;;;10.30;90.80;;;;;;5052646;28;19920;-69
2022/04/11 08:06:43;;;;;;;;;;;10.30;90.60;;;;;;5053176;28;19920;-69
2022/04/11 08:09:08;;;;;;;;;;;10.40;90.40;;;;;;5052121;28;19963;-69
2022/04/11 08:11:34;;;;;;;;;;;10.30;90.40;;;;;;5051635;28;19913;-69
2022/04/11 08:13:59;;;;;;;;;;;10.40;90.20;;;;;;5052023;28;19922;-69
2022/04/11 08:16:25;;;;;;;;;;;10.50;90.30;;;;;;5052220;28;19935;-69
2022/04/11 08:18:50;;;;;;;;;;;10.60;90.10;;;;;;5052202;28;19916;-69
2022/04/11 08:21:15;;;;;;;;;;;10.80;89.60;;;;;;5051591;28;19964;-69
2022/04/11 08:23:41;;;;;;;;;;;10.80;87.90;;;;;;5051510;28;19912;-69
2022/04/11 08:26:06;;;;;;;;;;;11.00;87.90;;;;;;5051889;28;19909;-69
2022/04/11 08:28:32;;;;;;;;;;;11.10;87.30;;;;;;5051882;28;19916;-69
2022/04/11 08:30:57;;;;;;;;;;;11.10;86.80;;;;;;5052304;28;19909;-71
2022/04/11 08:33:23;;;;;;;;;;;11.10;86.80;;;;;;5052383;28;20003;-70
2022/04/11 08:35:48;;;;;;;;;;;11.30;86.30;;;;;;5040749;28;19909;-69
2022/04/11 08:38:14;;;;;;;;;;;11.40;86.50;;;;;;5047546;28;19940;-71
2022/04/11 08:40:39;;;;;;;;;;;11.50;86.60;;;;;;5037003;28;19913;-70
2022/04/11 08:43:05;;;;;;;;;;;11.50;86.00;;;;;;5053612;28;19912;-69
2022/04/11 08:45:30;;;;;;;;;;;11.60;86.00;;;;;;5063259;28;19938;-67
2022/04/11 08:47:59;;;;;;;;;;;11.70;84.80;;;;;;5065200;28;19909;-68
2022/04/11 08:50:25;;;;;;;;;;;11.80;83.70;;;;;;5065262;28;19909;-69
2022/04/11 08:52:51;;;;;;;;;;;11.90;83.50;;;;;;5045026;28;19916;-69
2022/04/11 08:55:17;;;;;;;;;;;12.00;83.90;;;;;;5045023;28;19909;-69
2022/04/11 08:57:42;;;;;;;;;;;12.10;82.50;;;;;;5071940;28;19920;-67
2022/04/11 09:00:09;;;;;;;;;;;12.20;81.10;;;;;;5079328;28;19964;-66
2022/04/11 09:02:35;;;;;;;;;;;12.30;80.40;;;;;;5080524;28;19940;-66
2022/04/11 09:05:01;;;;;;;;;;;12.40;79.90;;;;;;5080110;28;19909;-66
2022/04/11 09:07:27;;;;;;;;;;;12.50;79.90;;;;;;5076715;28;19901;-68
2022/04/11 09:09:56;;;;;;;;;;;12.50;79.00;;;;;;5060530;28;20329;-68
2022/04/11 09:12:22;;;;;;;;;;;12.60;77.70;;;;;;5054876;28;19915;-70
2022/04/11 09:14:54;;;;;;;;;;;12.60;77.40;;;;;;5055176;28;20370;-68
2022/04/11 09:17:23;;;;;;;;;;;12.60;77.50;;;;;;5054971;28;19945;-68
2022/04/11 09:20:04;;;;;;;;;;;12.70;77.60;;;;;;5054367;28;20288;-69
2022/04/11 09:22:30;;;;;;;;;;;12.70;77.90;;;;;;5054773;28;19978;-70
2022/04/11 09:25:05;;;;;;;;;;;12.70;77.50;;;;;;5054453;28;19916;-70
2022/04/11 09:27:31;;;;;;;;;;;12.80;77.40;;;;;;5054528;28;19919;-69
2022/04/11 09:29:56;;;;;;;;;;;12.90;76.00;;;;;;5054001;28;20366;-69
2022/04/11 09:32:21;;;;;;;;;;;12.90;76.30;;;;;;5054374;28;20389;-70
2022/04/11 09:34:56;;;;;;;;;;;12.90;74.50;;;;;;5053744;28;19912;-70
2022/04/11 09:37:21;;;;;;;;;;;13.00;74.30;;;;;;5054160;28;20383;-69
2022/04/11 09:39:59;;;;;;;;;;;13.10;75.10;;;;;;5053919;28;19991;-68
2022/04/11 09:42:31;;;;;;;;;;;13.30;74.60;;;;;;5054061;28;19919;-69
2022/04/11 09:45:00;;;;;;;;;;;13.30;73.10;;;;;;5053716;28;19988;-69
2022/04/11 09:47:26;;;;;;;;;;;13.30;73.60;;;;;;5054186;28;20304;-68
2022/04/11 09:49:51;;;;;;;;;;;13.40;73.30;;;;;;5053782;28;19909;-69
2022/04/11 09:52:17;;;;;;;;;;;13.40;73.00;;;;;;5053439;28;19909;-71
2022/04/11 09:54:47;;;;;;;;;;;13.30;72.40;;;;;;5053782;28;19913;-69
2022/04/11 09:57:13;;;;;;;;;;;13.30;73.10;;;;;;5053860;28;20312;-68
2022/04/11 09:59:43;;;;;;;;;;;13.30;73.70;;;;;;5053111;28;20382;-68
2022/04/11 10:02:10;;;;;;;;;;;13.40;74.00;;;;;;5053850;28;19948;-68
2022/04/11 10:04:36;;;;;;;;;;;13.50;73.70;;;;;;5053622;28;20436;-68
2022/04/11 10:07:02;;;;;;;;;;;13.60;72.60;;;;;;5054052;28;19916;-68
2022/04/11 10:09:28;;;;;;;;;;;13.70;73.20;;;;;;5053127;28;20025;-70
2022/04/11 10:11:54;;;;;;;;;;;13.50;71.80;;;;;;5053098;28;20440;-69
2022/04/11 10:14:23;;;;;;;;;;;13.60;71.30;;;;;;5054106;28;19913;-69
2022/04/11 10:16:50;;;;;;;;;;;13.80;80.50;;;;;;5054442;28;19916;-68
2022/04/11 10:19:16;;;;;;;;;;;13.80;69.90;;;;;;5054160;28;19920;-69
2022/04/11 10:21:42;;;;;;;;;;;13.80;70.30;;;;;;5056036;28;19909;-70
2022/04/11 10:24:10;;;;;;;;;;;13.90;69.90;;;;;;5053417;28;19912;-67
2022/04/11 10:26:42;;;;;;;;;;;13.90;74.00;;;;;;5053706;28;19912;-66
2022/04/11 10:29:28;;;;;;;;;;;14.00;77.70;;;;;;5052702;28;20370;-67
2022/04/11 10:32:04;;;;;;;;;;;14.00;72.10;;;;;;5053915;28;20015;-68
2022/04/11 10:35:00;;;;;;;;;;;13.80;70.70;;;;;;5054580;28;19909;-70
2022/04/11 10:37:27;;;;;;;;;;;14.10;74.40;;;;;;5045316;28;20008;-68
2022/04/11 10:40:13;;;;;;;;;;;14.20;68.50;;;;;;5053085;28;19975;-69
2022/04/11 10:42:38;;;;;;;;;;;14.30;66.40;;;;;;5044567;28;19920;-68
2022/04/11 10:45:24;;;;;;;;;;;14.30;65.90;;;;;;5042624;28;19912;-67
2022/04/11 10:47:50;;;;;;;;;;;14.40;66.50;;;;;;5073010;28;19908;-70
2022/04/11 10:50:15;;;;;;;;;;;14.40;65.50;;;;;;5073090;28;19958;-70
2022/04/11 10:52:41;;;;;;;;;;;14.40;65.50;;;;;;5073675;28;19912;-68
2022/04/11 10:55:06;;;;;;;;;;;14.20;64.00;;;;;;5072922;28;19987;-69
2022/04/11 10:58:04;;;;;;;;;;;14.30;63.70;;;;;;5055636;28;19912;-69
2022/04/11 11:00:34;;;;;;;;;;;14.40;63.30;;;;;;5013983;28;19914;-69
2022/04/11 11:03:04;;;;;;;;;;;14.50;62.90;;;;;;5012237;28;20095;-68
2022/04/11 11:05:35;;;;;;;;;;;14.50;62.90;;;;;;5025747;28;19968;-68
2022/04/11 11:08:07;;;;;;;;;;;14.70;62.30;;;;;;5034828;28;20000;-70
2022/04/11 11:10:38;;;;;;;;;;;14.60;62.30;;;;;;5034718;28;20003;-67
2022/04/11 11:13:22;;;;;;;;;;;14.70;59.90;;;;;;5033987;28;19920;-67
2022/04/11 11:15:48;;;;;;;;;;;14.60;59.30;;;;;;5033389;28;19909;-68
2022/04/11 11:18:13;;;;;;;;;;;14.70;60.20;;;;;;5036845;28;19917;-70
2022/04/11 11:20:48;;;;;;;;;;;14.70;60.80;;;;;;5033736;28;19909;-70
2022/04/11 11:23:20;;;;;;;;;;;14.60;61.00;;;;;;5034885;28;19913;-69
2022/04/11 11:25:46;;;;;;;;;;;14.60;61.30;;;;;;5034715;28;19916;-68
2022/04/11 11:28:13;;;;;;;;;;;14.70;62.00;;;;;;5036564;28;19909;-69
2022/04/11 11:30:39;;;;;;;;;;;14.80;62.70;;;;;;5037885;28;19996;-69
2022/04/11 11:33:06;;;;;;;;;;;14.80;60.60;;;;;;5036216;28;19955;-69
2022/04/11 11:35:32;;;;;;;;;;;14.80;60.20;;;;;;5042980;28;19909;-69
2022/04/11 11:38:04;;;;;;;;;;;14.80;61.40;;;;;;5063283;28;19928;-68
2022/04/11 11:40:29;;;;;;;;;;;14.80;60.80;;;;;;5062924;28;19913;-69
2022/04/11 11:42:56;;;;;;;;;;;14.80;61.70;;;;;;5048653;28;20274;-69
2022/04/11 11:45:25;;;;;;;;;;;14.70;60.80;;;;;;5051705;28;19905;-67
2022/04/11 11:47:52;;;;;;;;;;;14.50;61.60;;;;;;5057091;28;19902;-67
2022/04/11 11:50:18;;;;;;;;;;;14.60;62.00;;;;;;5056800;28;19977;-68
2022/04/11 11:52:54;;;;;;;;;;;14.70;62.10;;;;;;5056009;28;19898;-66
2022/04/11 11:55:20;;;;;;;;;;;14.80;61.50;;;;;;5059118;28;19920;-68
2022/04/11 11:57:45;;;;;;;;;;;14.90;60.40;;;;;;5053767;28;19913;-69
2022/04/11 12:00:11;;;;;;;;;;;15.00;58.60;;;;;;5052795;28;19971;-69
2022/04/11 12:05:23;;;;;;;;;;;14.90;59.00;;;;;;5052334;28;19924;-69
2022/04/11 12:07:50;;;;;;;;;;;14.90;57.90;;;;;;5052285;28;20027;-68
2022/04/11 12:10:16;;;;;;;;;;;14.90;56.90;;;;;;5052250;28;19999;-70
2022/04/11 12:12:45;;;;;;;;;;;14.80;55.80;;;;;;5052260;28;19909;-69
2022/04/11 12:15:11;;;;;;;;;;;14.90;56.90;;;;;;5052400;28;20267;-69
2022/04/11 12:17:38;;;;;;;;;;;14.80;56.50;;;;;;5056878;28;20048;-71
2022/04/11 12:20:13;;;;;;;;;;;14.90;56.90;;;;;;5055973;28;20281;-71
2022/04/11 12:22:39;;;;;;;;;;;14.90;57.10;;;;;;5056493;28;19916;-69
2022/04/11 12:25:20;;;;;;;;;;;15.10;57.20;;;;;;5055988;28;19909;-69
2022/04/11 12:27:46;;;;;;;;;;;15.10;56.20;;;;;;5056340;28;19913;-68
2022/04/11 12:30:11;;;;;;;;;;;15.10;57.40;;;;;;5056003;28;19908;-68
2022/04/11 12:32:39;;;;;;;;;;;15.20;57.50;;;;;;5057239;28;20507;-68
2022/04/11 12:35:14;;;;;;;;;;;15.20;56.50;;;;;;5058009;28;19909;-68
2022/04/11 12:37:48;;;;;;;;;;;15.20;56.60;;;;;;5064918;28;20461;-70
2022/04/11 12:40:14;;;;;;;;;;;15.20;57.20;;;;;;5074271;28;19909;-69
2022/04/11 12:42:39;;;;;;;;;;;15.20;56.40;;;;;;5075098;28;19924;-69
2022/04/11 12:45:06;;;;;;;;;;;15.10;56.00;;;;;;5074835;28;19915;-69
2022/04/11 12:47:32;;;;;;;;;;;14.90;55.70;;;;;;5060601;28;19909;-68
2022/04/11 12:49:57;;;;;;;;;;;14.90;55.70;;;;;;5074073;28;19905;-68
2022/04/11 12:52:27;;;;;;;;;;;15.00;55.70;;;;;;5080430;28;20000;-67
2022/04/11 12:54:59;;;;;;;;;;;15.00;55.60;;;;;;5080612;28;19913;-66
2022/04/11 12:57:25;;;;;;;;;;;15.20;55.40;;;;;;5080570;28;19959;-65
2022/04/11 12:59:52;;;;;;;;;;;15.20;54.30;;;;;;5080547;28;19904;-65
2022/04/11 13:02:21;;;;;;;;;;;15.20;53.70;;;;;;5064742;28;19974;-69
2022/04/11 13:04:49;;;;;;;;;;;15.20;54.30;;;;;;5055981;28;19923;-70
2022/04/11 13:07:14;;;;;;;;;;;15.20;55.30;;;;;;5056119;28;19909;-69
2022/04/11 13:09:40;;;;;;;;;;;15.10;55.40;;;;;;5055494;28;19909;-69
2022/04/11 13:12:09;;;;;;;;;;;15.30;54.80;;;;;;5055602;28;19909;-69
2022/04/11 13:14:35;;;;;;;;;;;15.30;54.50;;;;;;5053852;28;20301;-69
2022/04/11 13:19:45;;;;;;;;;;;15.50;53.50;;;;;;5054799;28;20400;-69
2022/04/11 13:22:11;;;;;;;;;;;15.60;54.20;;;;;;5054665;28;19944;-70
2022/04/11 13:24:36;;;;;;;;;;;15.60;53.90;;;;;;5054534;28;20359;-70
2022/04/11 13:27:02;;;;;;;;;;;15.70;54.40;;;;;;5053863;28;19963;-70
2022/04/11 13:29:28;;;;;;;;;;;15.80;54.50;;;;;;5054410;28;20362;-70
2022/04/11 13:31:55;;;;;;;;;;;15.90;54.60;;;;;;5054541;28;20380;-69
2022/04/11 13:34:20;;;;;;;;;;;16.00;54.10;;;;;;5054223;28;19909;-69
2022/04/11 13:36:45;;;;;;;;;;;16.20;53.70;;;;;;5054679;28;19916;-69
2022/04/11 13:39:11;;;;;;;;;;;16.00;51.80;;;;;;5054270;28;20062;-69
2022/04/11 13:41:36;;;;;;;;;;;16.20;52.80;;;;;;5054535;28;19909;-70
2022/04/11 13:44:02;;;;;;;;;;;16.40;52.80;;;;;;5054703;28;19999;-69
2022/04/11 13:46:28;;;;;;;;;;;16.60;52.20;;;;;;5054726;28;19920;-70
2022/04/11 13:48:54;;;;;;;;;;;16.80;51.60;;;;;;5054791;28;20336;-70
2022/04/11 13:51:20;;;;;;;;;;;16.80;50.60;;;;;;5054562;28;20281;-71
2022/04/11 13:53:46;;;;;;;;;;;16.90;50.20;;;;;;5054865;28;19909;-69
2022/04/11 13:56:11;;;;;;;;;;;17.00;49.70;;;;;;5054374;28;20285;-70
2022/04/11 13:58:36;;;;;;;;;;;17.10;49.70;;;;;;5054086;28;20382;-69
2022/04/11 14:01:03;;;;;;;;;;;17.30;49.60;;;;;;5040500;22;20027;-71
2022/04/11 14:03:28;;;;;;;;;;;17.40;49.40;;;;;;5020942;28;19926;-72
2022/04/11 14:05:54;;;;;;;;;;;17.40;49.50;;;;;;5026856;28;19956;-71
2022/04/11 14:08:22;;;;;;;;;;;17.50;49.60;;;;;;5013853;28;20000;-71
2022/04/11 14:10:49;;;;;;;;;;;17.70;49.90;;;;;;5012236;28;19916;-71
2022/04/11 14:13:14;;;;;;;;;;;17.90;49.80;;;;;;5014161;28;19925;-72
2022/04/11 14:15:40;;;;;;;;;;;18.10;49.70;;;;;;5013711;28;20474;-72
2022/04/11 14:18:05;;;;;;;;;;;18.00;48.10;;;;;;5013429;28;19945;-72
2022/04/11 14:20:31;;;;;;;;;;;18.20;47.60;;;;;;5013154;28;19956;-71
2022/04/11 14:22:57;;;;;;;;;;;18.30;47.00;;;;;;5013178;28;19973;-71
2022/04/11 14:25:22;;;;;;;;;;;18.40;47.20;;;;;;5013623;28;19916;-72
2022/04/11 14:27:48;;;;;;;;;;;18.50;47.30;;;;;;5013644;28;20378;-72